Nanaimo Airport
CYCD : now visible

Airfield :











YOU CAN JOIN US ON...

 
LOGIN :

Register | Disclaimer

   EN    FR    IT 

 









Legend :    VFR   Marginal VFR   IFR   Intensive IFR   Very Intensive IFR
Visi :
Ceiling :
>= 8 km
>= 3000ft
5 to 8 km
1000 to 3000 ft
1500m to 5 km
500 to 1000 ft
800 to 1500m
200 to 500 ft
< 800m
< 200 ft
Symbols :   Thunderstorms  Fog  Heavy snow  Heavy precipitations  Wind > 20 kt






- Airport Elevation : 93 ft
- IATA code : YCD


CYCD - Nanaimo

CURRENT METAR :
  • 172200Z 12004KT 060V160 30SM FEW065 BKN250 23/11 A3014 RMK CU1CI4 SLP209 DENSITY ALT 900FT

EXPIRED METARs :
  • 172100Z 13009KT 070V160 30SM FEW060 BKN250 23/11 A3016 RMK CU1CI5 SLP214 DENSITY ALT 800FT
  • 172000Z 13007KT 090V170 30SM FEW044 SCT250 22/11 A3017 RMK CU2CI2 SLP219 DENSITY ALT 700FT

TAF TAF CYCD
Valid from the 17 at 18:00 until the 18 at 04:00 UTC


171738Z 1718/1804 09008KT P6SM FEW030 FEW250 RMK NXT FCST BY 180000Z
CZVR FIR / North America



MET'MAP, your aeronautical weather chart ! - Copyright ORBIFLY December 2007 - Disclaimer

ORBIFLY MET'MAP TEAM :

Programming & Development : Alexandra Zaïnal
Concept & original design : Baudouin d'Aumeries
Assistance for programming : Marc-Olivier Méhu
Technical & hardware support : Manuel Goepfert

Contact : metmap@orbifly.com




SOURCES & CREDITS :

   NOAA       Earth
Advisory